Time;durP1;ratioP1;P1;durP2;ratioP2;P2;SDS_P1;SDS_P2;PMS_P1;PMS_P2;Temp;Humidity;BMP_temperature;BMP_pressure;BME280_temperature;BME280_humidity;BME280_pressure;Samples;Min_cycle;Max_cycle;Signal;HPM_P1;HPM_P2
2021/11/02 00:01:37;;;;;;;34.80;13.95;;;;;;;6.98;89.50;99753.44;5015521;28;20380;-46
2021/11/02 00:04:02;;;;;;;25.63;14.05;;;;;;;6.97;89.15;99763.28;5015124;28;20370;-47
2021/11/02 00:06:27;;;;;;;35.08;15.90;;;;;;;6.96;89.34;99763.47;5023923;28;20033;-48
2021/11/02 00:08:53;;;;;;;32.53;14.68;;;;;;;6.94;89.40;99757.47;5030260;28;20034;-46
2021/11/02 00:11:18;;;;;;;33.72;13.65;;;;;;;6.94;89.73;99754.81;5025271;28;20053;-47
2021/11/02 00:13:46;;;;;;;33.53;13.65;;;;;;;6.93;89.88;99758.50;5014826;28;20044;-46
2021/11/02 00:16:15;;;;;;;32.85;13.95;;;;;;;6.95;89.76;99746.59;5013398;28;20038;-46
2021/11/02 00:18:45;;;;;;;27.90;13.48;;;;;;;6.98;89.58;99745.41;5025504;28;20033;-45
2021/11/02 00:21:11;;;;;;;29.92;12.50;;;;;;;7.00;89.53;99748.69;5029798;28;20025;-46
2021/11/02 00:23:38;;;;;;;28.60;13.88;;;;;;;7.01;89.42;99755.72;5014584;28;20113;-46
2021/11/02 00:26:05;;;;;;;29.83;13.18;;;;;;;7.03;89.79;99759.88;5013135;28;20045;-46
2021/11/02 00:28:30;;;;;;;24.00;12.37;;;;;;;7.03;89.64;99753.72;5024015;28;20036;-45
2021/11/02 00:30:56;;;;;;;38.53;14.55;;;;;;;7.05;89.74;99757.00;5034186;28;20026;-45
2021/11/02 00:33:21;;;;;;;31.02;13.40;;;;;;;7.07;89.56;99760.31;5033901;28;20039;-45
2021/11/02 00:35:46;;;;;;;37.85;13.18;;;;;;;7.07;89.56;99760.31;5029641;28;20163;-47
2021/11/02 00:38:12;;;;;;;34.15;14.90;;;;;;;7.08;89.33;99751.28;5026638;28;20065;-46
2021/11/02 00:40:37;;;;;;;34.03;13.77;;;;;;;7.05;89.37;99751.66;5015252;28;20028;-46
2021/11/02 00:43:04;;;;;;;30.27;12.65;;;;;;;7.03;89.41;99737.66;5014107;28;20112;-48
2021/11/02 00:45:31;;;;;;;27.13;13.23;;;;;;;7.03;89.65;99745.69;5021345;28;20084;-48
2021/11/02 00:48:02;;;;;;;31.90;13.20;;;;;;;7.03;89.55;99745.69;5029270;28;20057;-46
2021/11/02 00:50:28;;;;;;;37.25;13.65;;;;;;;7.03;89.78;99748.34;5014121;28;20076;-48
2021/11/02 00:52:54;;;;;;;30.65;13.65;;;;;;;7.03;89.80;99749.19;5014200;28;20420;-49
2021/11/02 00:55:19;;;;;;;36.28;14.73;;;;;;;7.03;89.94;99743.00;5014064;28;20113;-45
2021/11/02 00:57:44;;;;;;;34.40;13.38;;;;;;;7.03;89.81;99754.53;5015391;28;20037;-49
2021/11/02 01:00:12;;;;;;;37.17;15.05;;;;;;;7.03;89.99;99748.34;5027950;28;20033;-46
2021/11/02 01:02:37;;;;;;;27.33;13.48;;;;;;;7.03;89.99;99749.19;5014014;28;20104;-44
2021/11/02 01:05:03;;;;;;;32.83;13.90;;;;;;;7.03;90.01;99743.00;5013879;28;20466;-49
2021/11/02 01:07:29;;;;;;;31.42;13.68;;;;;;;7.03;90.03;99753.72;5016145;28;20026;-48
2021/11/02 01:09:54;;;;;;;32.40;13.90;;;;;;;7.06;90.13;99744.44;5033528;28;20032;-45
2021/11/02 01:12:19;;;;;;;36.65;15.18;;;;;;;7.05;90.28;99743.63;5029929;28;20040;-46
2021/11/02 01:14:45;;;;;;;34.03;14.43;;;;;;;7.07;90.20;99736.25;5031777;28;20399;-50
2021/11/02 01:17:10;;;;;;;32.00;13.75;;;;;;;7.12;90.44;99738.38;5013740;28;20057;-46
2021/11/02 01:19:36;;;;;;;33.63;14.73;;;;;;;7.16;90.00;99740.50;5033149;28;20029;-46
2021/11/02 01:22:02;;;;;;;35.92;14.77;;;;;;;7.17;90.13;99735.97;5033363;28;20048;-47
2021/11/02 01:24:27;;;;;;;47.00;14.68;;;;;;;7.17;90.10;99742.16;5033351;28;20018;-48
2021/11/02 01:26:53;;;;;;;26.25;13.40;;;;;;;7.18;89.90;99738.44;5033208;28;20439;-48
2021/11/02 01:29:18;;;;;;;30.52;14.18;;;;;;;7.19;90.00;99737.44;5015694;28;20370;-46
2021/11/02 01:31:44;;;;;;;40.42;14.52;;;;;;;7.20;89.65;99739.09;5030501;28;20071;-48
2021/11/02 01:34:10;;;;;;;33.13;15.60;;;;;;;7.21;89.75;99739.91;5031794;28;20021;-46
2021/11/02 01:36:36;;;;;;;29.33;14.23;;;;;;;7.21;89.74;99735.41;5033046;28;20108;-45
2021/11/02 01:39:04;;;;;;;34.60;14.65;;;;;;;7.22;89.67;99731.72;5011235;28;20045;-48
2021/11/02 01:41:29;;;;;;;32.58;15.10;;;;;;;7.23;90.01;99733.34;5014553;28;20053;-46
2021/11/02 01:43:57;;;;;;;38.95;15.15;;;;;;;7.23;89.85;99732.53;5012613;28;20029;-46
2021/11/02 01:46:24;;;;;;;32.70;15.50;;;;;;;7.24;89.87;99737.72;5028316;28;20537;-49
2021/11/02 01:48:51;;;;;;;29.35;15.30;;;;;;;7.23;90.05;99729.84;5020019;28;20025;-47
2021/11/02 01:51:17;;;;;;;46.00;16.85;;;;;;;7.26;89.71;99732.97;5013223;28;20113;-46
2021/11/02 01:53:42;;;;;;;35.95;15.45;;;;;;;7.26;89.68;99732.97;5013127;28;20105;-48
2021/11/02 01:56:09;;;;;;;32.60;15.93;;;;;;;7.26;89.63;99743.69;5013212;28;20032;-46
2021/11/02 01:58:34;;;;;;;36.58;16.92;;;;;;;7.24;89.87;99729.69;5023557;28;20029;-46
2021/11/02 02:01:01;;;;;;;37.30;15.93;;;;;;;7.23;90.06;99736.03;5019245;28;20034;-46
2021/11/02 02:03:37;;;;;;;37.15;15.07;;;;;;;7.23;90.03;99730.69;5011743;28;20037;-47
2021/11/02 02:06:20;;;;;;;37.25;16.40;;;;;;;7.23;89.74;99725.31;5011804;28;20022;-48
2021/11/02 02:09:27;;;;;;;35.50;15.57;;;;;;;7.23;89.72;99728.00;5023392;28;20025;-48
2021/11/02 02:12:08;;;;;;;31.80;15.40;;;;;;;7.22;90.09;99733.56;4978337;28;20050;-46
2021/11/02 02:14:40;;;;;;;39.67;15.60;;;;;;;7.24;89.74;99735.03;4993328;28;20045;-49
2021/11/02 02:17:13;;;;;;;41.28;15.57;;;;;;;7.23;89.84;99733.34;5032364;28;20027;-46
2021/11/02 02:19:47;;;;;;;35.67;15.55;;;;;;;7.22;89.59;99726.38;5012061;28;20033;-45
2021/11/02 02:22:35;;;;;;;38.50;15.77;;;;;;;7.26;89.39;99727.63;5011483;28;20141;-47
2021/11/02 02:25:18;;;;;;;32.35;14.18;;;;;;;7.27;89.86;99736.50;5012446;28;20022;-46
2021/11/02 02:28:07;;;;;;;32.92;15.52;;;;;;;7.28;89.73;99731.97;5033064;28;20091;-46
2021/11/02 02:30:37;;;;;;;37.22;16.42;;;;;;;7.26;89.88;99737.50;5027930;28;20037;-45
2021/11/02 02:33:03;;;;;;;33.85;16.05;;;;;;;7.25;90.09;99734.00;5030584;28;20033;-46
2021/11/02 02:35:28;;;;;;;34.65;15.23;;;;;;;7.24;89.71;99723.47;5031039;28;20156;-45
2021/11/02 02:37:55;;;;;;;41.75;15.70;;;;;;;7.25;90.07;99723.31;5030042;28;20045;-48
2021/11/02 02:40:21;;;;;;;37.17;15.88;;;;;;;7.23;89.84;99721.84;5021734;28;20072;-46
2021/11/02 02:42:48;;;;;;;42.92;15.57;;;;;;;7.23;90.04;99719.16;5030241;28;20022;-47
2021/11/02 02:45:15;;;;;;;39.20;15.75;;;;;;;7.19;89.99;99716.03;5030958;28;20461;-47
2021/11/02 02:47:42;;;;;;;32.65;14.82;;;;;;;7.20;90.11;99720.34;5027203;28;20026;-45
2021/11/02 02:50:08;;;;;;;37.35;16.33;;;;;;;7.18;90.08;99713.53;5011261;28;20116;-47
2021/11/02 02:52:34;;;;;;;39.35;15.52;;;;;;;7.16;90.17;99705.72;5012375;28;20061;-45
2021/11/02 02:55:00;;;;;;;41.38;17.25;;;;;;;7.11;90.21;99702.78;5013628;28;20352;-46
2021/11/02 02:57:26;;;;;;;37.20;16.50;;;;;;;7.10;90.59;99703.75;5016016;28;20026;-48
2021/11/02 02:59:52;;;;;;;47.88;17.77;;;;;;;7.07;90.66;99704.16;5033916;28;20392;-48
2021/11/02 03:02:19;;;;;;;39.15;17.25;;;;;;;7.06;90.93;99694.47;5025707;28;20021;-47
2021/11/02 03:04:47;;;;;;;48.60;17.48;;;;;;;7.05;90.80;99698.16;5034795;28;20099;-46
2021/11/02 03:07:13;;;;;;;43.67;17.65;;;;;;;6.99;90.69;99693.56;5036109;28;20028;-49
2021/11/02 03:09:43;;;;;;;32.35;15.85;;;;;;;6.98;90.71;99687.38;5019621;28;20116;-48
2021/11/02 03:12:10;;;;;;;37.70;16.58;;;;;;;6.94;90.91;99695.97;5016063;28;20034;-47
2021/11/02 03:17:27;;;;;;;37.92;17.67;;;;;;;6.91;91.26;99690.97;5015237;28;20095;-46
2021/11/02 03:55:31;;;;;;;43.72;18.95;;;;;;;6.66;91.92;99720.69;5015233;28;20085;-49
2021/11/02 03:58:04;;;;;;;49.65;20.48;;;;;;;6.62;92.21;99724.75;5030324;28;20030;-47
2021/11/02 04:23:33;;;;;;;44.83;19.70;;;;;;;6.52;92.80;99740.22;5016098;28;20116;-45
2021/11/02 04:29:15;;;;;;;42.72;20.27;;;;;;;6.51;92.82;99750.09;5013985;28;20041;-45
2021/11/02 05:07:11;;;;;;;45.33;19.83;;;;;;;6.20;93.28;99741.34;5013058;28;20044;-48
2021/11/02 05:10:00;;;;;;;46.63;19.75;;;;;;;6.20;93.43;99742.19;5028279;28;20035;-49
2021/11/02 05:53:33;;;;;;;55.63;22.30;;;;;;;6.44;93.52;99754.47;5026543;28;20049;-46
2021/11/02 06:28:11;;;;;;;63.45;27.15;;;;;;;6.74;92.77;99768.75;5031857;28;20040;-46
2021/11/02 06:30:42;;;;;;;76.30;28.83;;;;;;;6.74;92.41;99766.06;5018486;28;20029;-49
2021/11/02 06:36:13;;;;;;;77.00;30.73;;;;;;;6.74;92.53;99765.22;5019426;28;20145;-48
2021/11/02 06:49:17;;;;;;;82.00;34.75;;;;;;;6.82;92.18;99774.00;5011304;28;20065;-47
2021/11/02 06:57:27;;;;;;;86.28;34.78;;;;;;;6.88;92.21;99774.28;5030417;28;20120;-46
2021/11/02 07:00:14;;;;;;;88.55;35.13;;;;;;;6.91;92.14;99776.56;5032117;28;20037;-45
2021/11/02 07:19:35;;;;;;;67.03;27.23;;;;;;;7.06;91.38;99780.09;5032090;28;20049;-47
2021/11/02 07:25:05;;;;;;;58.58;27.15;;;;;;;7.18;90.89;99783.09;5030300;28;20108;-48
2021/11/02 08:48:03;;;;;;;86.55;37.70;;;;;;;7.52;91.40;99801.25;5034215;28;20087;-47
2021/11/02 08:50:37;;;;;;;87.60;36.75;;;;;;;7.61;91.24;99808.16;5034066;28;20108;-45
2021/11/02 08:53:05;;;;;;;85.78;35.25;;;;;;;7.64;90.88;99805.09;5033924;28;20042;-46
2021/11/02 08:55:30;;;;;;;83.07;35.03;;;;;;;7.67;90.81;99799.38;5034229;28;20460;-46
2021/11/02 08:57:56;;;;;;;84.95;35.65;;;;;;;7.72;90.55;99804.16;5033804;28;20359;-47
2021/11/02 09:00:22;;;;;;;91.57;35.58;;;;;;;7.75;90.79;99802.97;5032716;28;20428;-47
2021/11/02 09:02:51;;;;;;;84.80;36.10;;;;;;;7.79;90.70;99806.91;5034227;28;20029;-46
2021/11/02 09:05:22;;;;;;;88.10;36.47;;;;;;;7.87;90.71;99802.28;5033888;28;20037;-48
2021/11/02 09:07:50;;;;;;;80.20;34.92;;;;;;;7.85;90.41;99801.63;5033807;28;20021;-47
2021/11/02 09:10:17;;;;;;;;;;;;;;;7.85;90.06;99804.31;5032843;28;20037;-49
2021/11/02 09:12:44;;;;;;;92.65;36.80;;;;;;;7.84;90.00;99805.31;5033684;28;19960;-46
2021/11/02 09:15:10;;;;;;;87.13;37.17;;;;;;;7.81;89.66;99805.69;5032347;28;20449;-45
2021/11/02 09:17:42;;;;;;;84.72;36.70;;;;;;;7.88;89.83;99809.28;5032024;28;20056;-49
2021/11/02 09:20:08;;;;;;;84.93;36.05;;;;;;;7.87;89.76;99804.97;5033610;28;20029;-48
2021/11/02 09:22:34;;;;;;;91.95;37.05;;;;;;;7.85;89.26;99816.88;5032014;28;20075;-46
2021/11/02 09:25:00;;;;;;;86.50;37.03;;;;;;;7.90;89.88;99814.47;5033505;28;20067;-46
2021/11/02 09:27:26;;;;;;;79.90;38.08;;;;;;;7.88;89.57;99811.13;5033443;28;20021;-45
2021/11/02 09:29:52;;;;;;;86.75;37.22;;;;;;;7.85;89.17;99809.66;5033432;28;20056;-48
2021/11/02 09:32:17;;;;;;;88.35;39.38;;;;;;;7.83;89.65;99818.91;5033575;28;20053;-46
2021/11/02 09:34:43;;;;;;;87.10;38.67;;;;;;;7.84;89.75;99817.88;5032915;28;20033;-45
2021/11/02 09:37:26;;;;;;;91.95;40.00;;;;;;;7.85;90.11;99816.88;5033216;28;20029;-46
2021/11/02 09:39:52;;;;;;;85.70;40.22;;;;;;;7.82;90.47;99809.19;5033148;28;20102;-46
2021/11/02 09:42:46;;;;;;;87.43;40.92;;;;;;;7.76;90.91;99807.28;5032214;28;20341;-48
2021/11/02 09:45:31;;;;;;;99.15;39.90;;;;;;;7.68;91.34;99811.72;5032019;28;20439;-49
2021/11/02 09:48:14;;;;;;;98.03;41.22;;;;;;;7.66;91.76;99813.78;5032894;28;20026;-47
2021/11/02 09:51:10;;;;;;;102.28;43.38;;;;;;;7.65;92.00;99809.44;5032892;28;20029;-46
2021/11/02 09:53:58;;;;;;;98.05;41.35;;;;;;;7.67;91.96;99810.09;5032566;28;20167;-46
2021/11/02 09:56:36;;;;;;;95.90;41.50;;;;;;;7.75;92.34;99808.31;5032755;28;20041;-49
2021/11/02 09:59:23;;;;;;;98.53;42.72;;;;;;;7.76;92.27;99812.63;5031792;28;20029;-47
2021/11/02 10:02:03;;;;;;;100.72;44.00;;;;;;;7.78;92.49;99810.63;5032878;28;20388;-49
2021/11/02 10:04:55;;;;;;;97.45;43.22;;;;;;;7.94;92.61;99810.38;5031084;28;20440;-49
2021/11/02 10:08:24;;;;;;;102.85;42.60;;;;;;;7.90;92.06;99809.94;5031573;28;20072;-49
2021/11/02 10:11:01;;;;;;;88.07;38.85;;;;;;;7.95;92.17;99801.31;4991240;28;20453;-49
2021/11/02 10:13:55;;;;;;;96.30;41.53;;;;;;;8.01;92.39;99802.41;5032795;28;20021;-48
2021/11/02 10:16:36;;;;;;;96.68;39.55;;;;;;;8.03;92.28;99797.66;5013709;28;20033;-45
2021/11/02 10:19:20;;;;;;;96.82;39.50;;;;;;;8.13;92.31;99807.06;5031288;28;20090;-48
2021/11/02 10:22:07;;;;;;;88.60;38.13;;;;;;;8.20;91.59;99800.94;5032578;28;20021;-46
2021/11/02 10:25:34;;;;;;;83.35;37.42;;;;;;;8.40;91.59;99810.03;5032638;28;20048;-46
2021/11/02 10:28:15;;;;;;;82.03;36.67;;;;;;;8.51;90.88;99806.81;5009041;28;20077;-47
2021/11/02 10:30:49;;;;;;;71.85;33.85;;;;;;;8.48;89.45;99807.22;5032086;28;20064;-49
2021/11/02 10:33:20;;;;;;;77.00;35.22;;;;;;;8.54;89.53;99802.91;5032399;28;20060;-45
2021/11/02 10:36:23;;;;;;;76.45;34.75;;;;;;;8.52;89.39;99803.09;5032185;28;20026;-47
2021/11/02 10:39:12;;;;;;;69.10;32.67;;;;;;;8.52;89.53;99800.41;5032417;28;20429;-49
2021/11/02 10:42:13;;;;;;;66.50;30.95;;;;;;;8.53;88.39;99803.94;5032134;28;20116;-50
2021/11/02 10:44:47;;;;;;;69.53;33.35;;;;;;;8.37;89.43;99807.69;5032245;28;20388;-49
2021/11/02 10:47:21;;;;;;;66.47;33.08;;;;;;;8.32;89.49;99804.75;5032085;28;20037;-49
2021/11/02 10:50:10;;;;;;;66.20;32.55;;;;;;;8.29;90.24;99808.66;5031960;28;20035;-47
2021/11/02 10:52:37;;;;;;;64.20;32.50;;;;;;;8.19;90.47;99808.16;5027125;28;20041;-47
2021/11/02 10:55:07;;;;;;;68.80;31.98;;;;;;;8.26;90.28;99802.84;5031072;28;20033;-49
2021/11/02 10:57:36;;;;;;;71.88;34.67;;;;;;;8.22;90.83;99806.94;5030831;28;20017;-49
2021/11/02 11:00:08;;;;;;;76.20;34.80;;;;;;;8.13;91.37;99809.72;5032164;28;20392;-50
2021/11/02 11:02:34;;;;;;;78.72;36.38;;;;;;;8.13;91.64;99812.41;5030898;28;20449;-48
2021/11/02 11:05:01;;;;;;;77.32;37.08;;;;;;;8.14;92.29;99808.72;5032370;28;20022;-48
2021/11/02 11:07:46;;;;;;;73.43;34.90;;;;;;;8.09;92.22;99803.09;5031044;28;20018;-50
2021/11/02 11:10:17;;;;;;;65.22;32.15;;;;;;;8.09;92.12;99811.16;5031477;28;20473;-51
2021/11/02 11:12:51;;;;;;;77.18;34.38;;;;;;;8.12;91.88;99810.75;5032050;28;20037;-51
2021/11/02 11:15:16;;;;;;;68.80;32.65;;;;;;;8.10;91.78;99806.63;5032219;28;20026;-51
2021/11/02 11:17:48;;;;;;;77.05;33.67;;;;;;;8.05;91.84;99801.81;5035979;28;20037;-52
2021/11/02 11:20:15;;;;;;;79.05;35.63;;;;;;;8.12;92.31;99810.75;5035717;28;20029;-49
2021/11/02 11:22:42;;;;;;;78.20;36.58;;;;;;;8.20;92.16;99807.13;5035766;28;20121;-53
2021/11/02 11:25:26;;;;;;;68.82;33.47;;;;;;;8.04;91.43;99805.53;5035719;28;20079;-49
2021/11/02 11:27:55;;;;;;;65.30;31.08;;;;;;;8.04;91.49;99805.53;5035903;28;20018;-51
2021/11/02 11:30:22;;;;;;;62.53;30.63;;;;;;;8.13;91.91;99798.19;5035860;28;20068;-51
2021/11/02 11:32:48;;;;;;;63.65;29.92;;;;;;;8.16;91.95;99802.34;5035399;28;20029;-48
2021/11/02 11:35:14;;;;;;;66.70;31.00;;;;;;;8.24;91.56;99802.19;5035916;28;20083;-51
2021/11/02 11:37:48;;;;;;;56.55;28.85;;;;;;;8.30;91.69;99804.13;5035581;28;20025;-50
2021/11/02 11:40:18;;;;;;;52.33;28.00;;;;;;;8.28;91.89;99806.16;5035703;28;20041;-48
2021/11/02 11:42:49;;;;;;;62.30;29.40;;;;;;;8.28;91.66;99806.16;5034139;28;20130;-50
2021/11/02 11:45:28;;;;;;;55.13;25.70;;;;;;;8.26;91.28;99805.53;5034102;28;20029;-51
2021/11/02 11:48:11;;;;;;;49.33;23.63;;;;;;;8.03;91.70;99803.88;5033937;28;20108;-49
2021/11/02 11:50:38;;;;;;;52.40;24.38;;;;;;;8.01;92.21;99803.25;5034106;28;20075;-48
2021/11/02 11:53:04;;;;;;;51.05;24.50;;;;;;;7.98;92.92;99800.94;5035367;28;20113;-49
2021/11/02 11:55:34;;;;;;;45.05;22.23;;;;;;;8.00;93.28;99801.56;5035105;28;20041;-50
2021/11/02 11:58:05;;;;;;;52.92;22.75;;;;;;;8.02;93.61;99806.75;5034912;28;20061;-50
2021/11/02 12:00:32;;;;;;;47.78;20.77;;;;;;;8.07;93.93;99805.16;5035261;28;20468;-52
2021/11/02 12:02:57;;;;;;;32.65;13.77;;;;;;;8.14;94.08;99805.22;5035083;28;20025;-50
2021/11/02 12:05:22;;;;;;;25.02;12.13;;;;;;;8.21;93.89;99805.28;5035309;28;20052;-49
2021/11/02 12:08:04;;;;;;;21.70;10.23;;;;;;;8.25;93.74;99802.03;5033920;28;20026;-51
2021/11/02 12:10:30;;;;;;;21.13;8.35;;;;;;;8.28;93.16;99806.16;5035234;28;20017;-48
2021/11/02 12:12:56;;;;;;;15.15;8.13;;;;;;;8.33;92.88;99803.75;5034824;28;20082;-51
2021/11/02 12:15:22;;;;;;;18.23;7.43;;;;;;;8.38;93.18;99804.00;5035254;28;20034;-48
2021/11/02 12:17:50;;;;;;;18.30;8.15;;;;;;;8.44;92.98;99805.94;5035417;28;20392;-51
2021/11/02 12:20:16;;;;;;;20.50;6.55;;;;;;;8.50;93.18;99794.41;5033903;28;20192;-48
2021/11/02 12:22:49;;;;;;;11.52;6.75;;;;;;;8.59;92.93;99802.34;5036232;28;20472;-50
2021/11/02 12:25:29;;;;;;;8.55;4.65;;;;;;;8.74;92.54;99798.53;5036238;28;20040;-49
2021/11/02 12:27:56;;;;;;;15.20;5.43;;;;;;;8.81;92.36;99795.88;5033083;28;20053;-51
2021/11/02 12:30:32;;;;;;;14.43;4.90;;;;;;;8.90;91.71;99793.88;5034688;28;20126;-49
2021/11/02 12:32:57;;;;;;;12.63;4.53;;;;;;;8.97;91.42;99800.13;5016791;28;20172;-50
2021/11/02 12:35:38;;;;;;;10.65;4.50;;;;;;;8.97;90.13;99792.88;5034352;28;20211;-51
2021/11/02 12:38:05;;;;;;;17.50;3.38;;;;;;;9.07;89.96;99794.41;5034195;28;20439;-51
2021/11/02 12:40:34;;;;;;;5.43;1.60;;;;;;;9.06;87.94;99790.03;5034406;28;20029;-49
2021/11/02 12:42:59;;;;;;;9.35;2.00;;;;;;;9.13;88.17;99796.28;5034309;28;20029;-48
2021/11/02 12:45:27;;;;;;;7.60;1.60;;;;;;;9.17;86.45;99795.69;5033059;28;20018;-48
2021/11/02 12:47:59;;;;;;;3.13;1.55;;;;;;;9.20;86.99;99799.84;5032787;28;20061;-47
2021/11/02 12:50:27;;;;;;;8.23;1.88;;;;;;;9.23;87.27;99799.44;5032887;28;20119;-49
2021/11/02 12:52:56;;;;;;;3.50;1.30;;;;;;;9.28;87.56;99796.16;5034157;28;20388;-47
2021/11/02 12:55:24;;;;;;;6.85;1.30;;;;;;;9.27;86.12;99789.97;5034165;28;20044;-49
2021/11/02 12:58:00;;;;;;;1.75;0.90;;;;;;;9.24;86.58;99795.72;5034146;28;20199;-50
2021/11/02 13:00:28;;;;;;;5.43;1.48;;;;;;;9.25;87.01;99789.34;5032332;28;20097;-49
2021/11/02 13:03:02;;;;;;;4.35;1.30;;;;;;;9.25;85.68;99800.06;5033758;28;20034;-49
2021/11/02 13:05:30;;;;;;;4.97;1.17;;;;;;;9.37;85.39;99789.59;5017139;28;20404;-49
2021/11/02 13:08:09;;;;;;;6.60;1.40;;;;;;;9.42;84.33;99787.13;5033877;28;20404;-49
2021/11/02 13:10:36;;;;;;;7.47;1.30;;;;;;;9.44;83.04;99788.59;5032318;28;20112;-50
2021/11/02 13:13:10;;;;;;;10.88;1.83;;;;;;;9.57;82.95;99789.69;5032252;28;20029;-49
2021/11/02 13:15:57;;;;;;;3.83;1.73;;;;;;;9.64;83.53;99796.75;5033622;28;20040;-49
2021/11/02 13:18:33;;;;;;;10.52;1.83;;;;;;;9.77;83.98;99795.09;5033448;28;20030;-49
2021/11/02 13:21:20;;;;;;;5.68;1.60;;;;;;;9.88;84.75;99797.22;5033437;28;20022;-47
2021/11/02 13:23:52;;;;;;;6.07;1.50;;;;;;;9.97;84.29;99805.91;5033395;28;20021;-50
2021/11/02 13:26:21;;;;;;;5.80;1.70;;;;;;;9.99;83.80;99804.69;5033562;28;20465;-50
2021/11/02 13:28:50;;;;;;;4.25;1.27;;;;;;;10.06;84.61;99804.72;5033249;28;20124;-51
2021/11/02 13:31:34;;;;;;;8.20;1.02;;;;;;;10.07;83.60;99809.03;5033219;28;20422;-50
2021/11/02 13:34:31;;;;;;;9.25;1.63;;;;;;;10.22;81.56;99820.44;5033200;28;20028;-49
2021/11/02 13:37:04;;;;;;;5.97;1.50;;;;;;;10.17;82.14;99820.22;5033636;28;20033;-50
2021/11/02 13:39:30;;;;;;;3.75;0.95;;;;;;;10.11;79.91;99819.19;5032087;28;20077;-48
2021/11/02 13:41:56;;;;;;;4.68;1.30;;;;;;;10.06;78.36;99821.66;5033244;28;20025;-50
2021/11/02 13:44:24;;;;;;;2.67;0.95;;;;;;;10.05;79.55;99828.06;5032976;28;20059;-49
2021/11/02 13:46:52;;;;;;;6.82;1.55;;;;;;;10.01;81.87;99831.38;5031696;28;20025;-49
2021/11/02 13:49:19;;;;;;;8.93;1.83;;;;;;;9.97;82.94;99827.41;5032657;28;20437;-49
2021/11/02 13:51:45;;;;;;;3.80;1.70;;;;;;;9.85;79.63;99824.50;5031746;28;20068;-49
2021/11/02 13:54:11;;;;;;;6.55;1.63;;;;;;;9.85;80.50;99828.00;5032502;28;20029;-46
2021/11/02 13:56:39;;;;;;;6.95;1.27;;;;;;;9.83;82.21;99822.00;5032637;28;20037;-47
2021/11/02 13:59:05;;;;;;;;;;;;;;;9.82;82.04;99824.88;5033234;28;20104;-46
2021/11/02 14:01:39;;;;;;;10.40;2.85;;;;;;;9.84;80.97;99823.66;5032875;28;19905;-49
2021/11/02 14:04:17;;;;;;;2.75;1.20;;;;;;;9.87;80.09;99828.66;5032741;28;20571;-47
2021/11/02 14:06:45;;;;;;;2.42;1.13;;;;;;;9.88;78.32;99827.59;5032597;28;20043;-48
2021/11/02 14:09:11;;;;;;;;;;;;;;;9.96;79.42;99831.16;5032980;28;20029;-50
2021/11/02 14:11:37;;;;;;;6.68;1.88;;;;;;;9.94;76.90;99838.56;5047582;28;20355;-47
2021/11/02 14:14:11;;;;;;;5.32;1.13;;;;;;;9.89;77.25;99834.63;5032250;28;20107;-48
2021/11/02 14:16:43;;;;;;;6.43;1.60;;;;;;;9.91;78.05;99841.69;5031170;28;20026;-48
2021/11/02 14:19:33;;;;;;;13.10;2.28;;;;;;;9.80;79.12;99827.78;5032401;28;20029;-49
2021/11/02 14:21:59;;;;;;;10.10;2.03;;;;;;;9.79;81.19;99834.19;5032162;28;20488;-49
2021/11/02 14:24:35;;;;;;;9.90;2.45;;;;;;;9.74;81.40;99842.03;5032263;28;20032;-46
2021/11/02 14:27:02;;;;;;;5.97;1.55;;;;;;;9.73;82.40;99834.16;5032536;28;20055;-48
2021/11/02 14:29:53;;;;;;;10.20;2.15;;;;;;;9.71;79.71;99836.22;5032327;28;20021;-50
2021/11/02 14:32:36;;;;;;;3.75;1.17;;;;;;;9.62;77.68;99843.63;5032340;28;20034;-50
2021/11/02 14:35:06;;;;;;;6.70;1.90;;;;;;;9.67;78.86;99843.88;5032200;28;20420;-45
2021/11/02 14:37:46;;;;;;;7.72;1.60;;;;;;;9.72;79.78;99844.09;5032173;28;20056;-49
2021/11/02 14:40:28;;;;;;;5.40;1.10;;;;;;;9.71;77.85;99846.97;5030726;28;20120;-47
2021/11/02 14:42:57;;;;;;;7.93;1.30;;;;;;;9.73;78.77;99851.13;5032005;28;20037;-48
2021/11/02 14:45:53;;;;;;;3.80;1.60;;;;;;;9.70;79.05;99854.22;5030975;28;20033;-49
2021/11/02 14:48:41;;;;;;;5.05;2.05;;;;;;;9.71;79.73;99860.41;5030891;28;20420;-45
2021/11/02 14:51:12;;;;;;;4.28;1.48;;;;;;;9.61;77.10;99867.00;5032032;28;20026;-49
2021/11/02 14:53:39;;;;;;;3.25;0.98;;;;;;;9.53;77.65;99860.94;5032298;28;20377;-50
2021/11/02 14:56:30;;;;;;;5.32;1.33;;;;;;;9.52;78.85;99864.66;5032099;28;20030;-47
2021/11/02 14:58:56;;;;;;;3.72;1.13;;;;;;;9.54;79.63;99865.28;5030904;28;20132;-47
2021/11/02 15:01:35;;;;;;;5.82;1.38;;;;;;;9.50;79.35;99874.75;5031792;28;20107;-50
2021/11/02 15:04:14;;;;;;;4.13;1.58;;;;;;;9.44;80.31;99877.22;5032245;28;20063;-48
2021/11/02 15:06:45;;;;;;;4.20;1.48;;;;;;;9.42;80.59;99870.38;5030790;28;20088;-48
2021/11/02 15:09:12;;;;;;;9.23;2.00;;;;;;;9.35;78.80;99869.53;5031984;28;20026;-48
2021/11/02 15:11:41;;;;;;;7.68;2.22;;;;;;;9.35;80.65;99872.22;5030722;28;20024;-47
2021/11/02 15:14:12;;;;;;;4.55;1.67;;;;;;;9.28;80.63;99871.34;5031332;28;20044;-48
2021/11/02 15:16:46;;;;;;;5.65;2.10;;;;;;;9.27;80.94;99878.59;5030486;28;20417;-47
2021/11/02 15:19:12;;;;;;;4.43;1.80;;;;;;;9.28;81.42;99874.03;5031799;28;20473;-46
2021/11/02 15:21:40;;;;;;;4.53;2.40;;;;;;;9.20;81.35;99877.69;5031943;28;20026;-46
2021/11/02 15:24:08;;;;;;;5.82;2.35;;;;;;;9.10;81.39;99871.84;5030408;28;20029;-46
2021/11/02 15:26:50;;;;;;;6.68;2.10;;;;;;;9.05;81.90;99861.69;5031553;28;20469;-47
2021/11/02 15:29:17;;;;;;;7.13;1.80;;;;;;;9.02;81.88;99868.28;5031641;28;20033;-46
2021/11/02 15:32:09;;;;;;;8.95;2.60;;;;;;;8.99;81.16;99862.47;5030271;28;20420;-46
2021/11/02 15:34:45;;;;;;;5.93;2.20;;;;;;;8.93;82.68;99863.28;5031314;28;20021;-48
2021/11/02 15:37:17;;;;;;;3.42;2.15;;;;;;;8.91;83.05;99860.78;5031995;28;20101;-49
2021/11/02 15:39:45;;;;;;;6.38;2.33;;;;;;;8.89;83.90;99865.50;5031497;28;20409;-47
2021/11/02 15:42:22;;;;;;;5.80;2.35;;;;;;;8.84;83.63;99870.63;5030456;28;20040;-47
2021/11/02 15:44:58;;;;;;;4.35;1.75;;;;;;;8.82;83.49;99871.84;5031691;28;20018;-48
2021/11/02 15:47:25;;;;;;;6.63;2.00;;;;;;;8.78;83.50;99872.22;5032103;28;20116;-49
2021/11/02 15:50:08;;;;;;;10.60;2.58;;;;;;;8.72;83.07;99872.19;5031763;28;20473;-47
2021/11/02 15:52:35;;;;;;;4.60;2.10;;;;;;;8.70;83.03;99882.28;5031675;28;20044;-49
2021/11/02 15:55:21;;;;;;;13.07;2.70;;;;;;;8.68;84.34;99887.00;5014158;28;20580;-45
2021/11/02 15:57:54;;;;;;;6.55;3.00;;;;;;;8.61;83.62;99886.09;5031829;28;20034;-48
2021/11/02 16:00:31;;;;;;;8.60;3.17;;;;;;;8.57;84.37;99881.13;5022195;28;20040;-47
2021/11/02 16:02:57;;;;;;;10.57;2.60;;;;;;;8.56;84.88;99884.84;5009922;28;20045;-46
2021/11/02 16:05:25;;;;;;;7.65;2.83;;;;;;;8.51;84.79;99881.91;5012677;28;20029;-48
2021/11/02 16:07:51;;;;;;;;;;;;;;;8.50;84.83;99884.75;5012714;28;20040;-47
2021/11/02 16:10:17;;;;;;;4.82;2.40;;;;;;;8.49;85.19;99886.63;5012209;28;20008;-47
2021/11/02 16:12:45;;;;;;;4.10;2.25;;;;;;;8.46;84.70;99889.69;5012214;28;20465;-50
2021/11/02 16:15:20;;;;;;;9.45;2.53;;;;;;;8.41;84.95;99885.94;5011773;28;20026;-46
2021/11/02 16:17:52;;;;;;;16.55;3.58;;;;;;;8.35;85.05;99882.13;5010671;28;20052;-48
2021/11/02 16:20:27;;;;;;;13.27;2.75;;;;;;;8.34;85.25;99886.63;5010477;28;20030;-46
2021/11/02 16:23:00;;;;;;;7.90;4.63;;;;;;;8.31;85.24;99887.03;5010330;28;20401;-46
2021/11/02 16:25:27;;;;;;;11.27;5.47;;;;;;;8.26;85.61;99886.75;5011773;28;20109;-47
2021/11/02 16:28:02;;;;;;;7.80;4.13;;;;;;;8.21;86.42;99894.53;5011920;28;20037;-47
2021/11/02 16:30:53;;;;;;;13.13;4.15;;;;;;;8.20;86.53;99895.56;5011536;28;20021;-47
2021/11/02 16:33:18;;;;;;;6.05;3.78;;;;;;;8.24;86.57;99894.19;5011694;28;20555;-48
2021/11/02 16:35:49;;;;;;;31.45;17.08;;;;;;;8.26;87.59;99899.34;5020508;28;20094;-46
2021/11/02 16:38:32;;;;;;;32.88;19.05;;;;;;;8.30;87.75;99912.19;5030854;28;20103;-48
2021/11/02 16:41:00;;;;;;;15.77;9.00;;;;;;;8.42;87.68;99931.31;5012144;28;20413;-49
2021/11/02 16:43:46;;;;;;;9.90;4.22;;;;;;;8.41;86.91;99931.50;5019018;28;20033;-47
2021/11/02 16:46:34;;;;;;;5.28;2.22;;;;;;;8.41;83.96;99932.34;5029470;28;20033;-47
2021/11/02 16:49:01;;;;;;;4.47;1.13;;;;;;;8.47;81.56;99933.41;5029470;28;20120;-46